sensor_id;sensor_type;location;lat;lon;timestamp;temperature;humidity
843;DHT22;407;48.884;9.126;2023-03-31T00:01:35;12.40;81.10
843;DHT22;407;48.884;9.126;2023-03-31T00:04:01;12.40;78.70
843;DHT22;407;48.884;9.126;2023-03-31T00:06:32;12.40;84.90
843;DHT22;407;48.884;9.126;2023-03-31T00:09:06;12.50;99.90
843;DHT22;407;48.884;9.126;2023-03-31T00:11:32;12.30;99.90
843;DHT22;407;48.884;9.126;2023-03-31T00:13:58;12.30;99.90
843;DHT22;407;48.884;9.126;2023-03-31T00:16:23;12.30;99.90
843;DHT22;407;48.884;9.126;2023-03-31T00:18:49;12.20;99.90
843;DHT22;407;48.884;9.126;2023-03-31T00:21:20;12.10;99.90
843;DHT22;407;48.884;9.126;2023-03-31T00:23:52;12.00;99.90
843;DHT22;407;48.884;9.126;2023-03-31T00:26:18;12.00;99.90
843;DHT22;407;48.884;9.126;2023-03-31T00:28:43;12.00;99.90
843;DHT22;407;48.884;9.126;2023-03-31T00:31:09;11.90;99.90
843;DHT22;407;48.884;9.126;2023-03-31T00:33:35;11.80;99.90
843;DHT22;407;48.884;9.126;2023-03-31T00:36:00;11.70;99.90
843;DHT22;407;48.884;9.126;2023-03-31T00:38:31;11.70;99.90
843;DHT22;407;48.884;9.126;2023-03-31T00:40:57;11.70;1.00
843;DHT22;407;48.884;9.126;2023-03-31T00:43:33;11.70;1.00
843;DHT22;407;48.884;9.126;2023-03-31T00:48:32;11.70;1.00
843;DHT22;407;48.884;9.126;2023-03-31T00:51:03;11.70;1.00
843;DHT22;407;48.884;9.126;2023-03-31T00:53:32;11.70;1.00
843;DHT22;407;48.884;9.126;2023-03-31T00:56:05;11.70;1.00
843;DHT22;407;48.884;9.126;2023-03-31T00:58:32;11.70;1.00
843;DHT22;407;48.884;9.126;2023-03-31T01:00:59;11.30;99.90
843;DHT22;407;48.884;9.126;2023-03-31T01:03:27;11.40;1.00
843;DHT22;407;48.884;9.126;2023-03-31T01:06:01;11.30;99.90
843;DHT22;407;48.884;9.126;2023-03-31T01:08:30;11.30;99.90
843;DHT22;407;48.884;9.126;2023-03-31T01:11:01;11.50;1.00
843;DHT22;407;48.884;9.126;2023-03-31T01:13:29;11.70;99.90
843;DHT22;407;48.884;9.126;2023-03-31T01:15:55;11.80;99.90
843;DHT22;407;48.884;9.126;2023-03-31T01:18:21;12.00;99.90
843;DHT22;407;48.884;9.126;2023-03-31T01:21:11;12.10;99.90
843;DHT22;407;48.884;9.126;2023-03-31T01:30:17;12.20;18.10
843;DHT22;407;48.884;9.126;2023-03-31T01:33:20;12.30;20.10
843;DHT22;407;48.884;9.126;2023-03-31T01:38:55;12.40;26.70
843;DHT22;407;48.884;9.126;2023-03-31T01:44:19;12.30;1.00
843;DHT22;407;48.884;9.126;2023-03-31T01:46:59;12.30;1.00
843;DHT22;407;48.884;9.126;2023-03-31T01:52:03;12.30;12.60
843;DHT22;407;48.884;9.126;2023-03-31T02:02:59;12.10;32.60
843;DHT22;407;48.884;9.126;2023-03-31T02:05:31;12.00;29.70
843;DHT22;407;48.884;9.126;2023-03-31T02:08:25;12.00;36.30
843;DHT22;407;48.884;9.126;2023-03-31T02:10:50;11.90;1.00
843;DHT22;407;48.884;9.126;2023-03-31T02:13:18;11.90;14.70
843;DHT22;407;48.884;9.126;2023-03-31T02:15:50;11.90;1.00
843;DHT22;407;48.884;9.126;2023-03-31T02:18:20;11.90;1.00
843;DHT22;407;48.884;9.126;2023-03-31T02:20:52;12.00;1.00
843;DHT22;407;48.884;9.126;2023-03-31T02:23:21;12.10;1.00
843;DHT22;407;48.884;9.126;2023-03-31T02:25:50;11.90;1.00
843;DHT22;407;48.884;9.126;2023-03-31T02:28:21;11.80;15.00
843;DHT22;407;48.884;9.126;2023-03-31T02:31:12;11.90;12.40
843;DHT22;407;48.884;9.126;2023-03-31T02:33:40;11.80;99.90
843;DHT22;407;48.884;9.126;2023-03-31T02:36:06;11.70;99.90
843;DHT22;407;48.884;9.126;2023-03-31T02:38:36;11.70;99.90
843;DHT22;407;48.884;9.126;2023-03-31T02:41:04;11.80;1.00
843;DHT22;407;48.884;9.126;2023-03-31T02:43:30;11.70;99.90
843;DHT22;407;48.884;9.126;2023-03-31T02:45:55;11.80;99.90
843;DHT22;407;48.884;9.126;2023-03-31T02:48:24;11.80;99.90
843;DHT22;407;48.884;9.126;2023-03-31T02:51:00;11.90;99.90
843;DHT22;407;48.884;9.126;2023-03-31T02:56:46;12.10;99.90
843;DHT22;407;48.884;9.126;2023-03-31T03:02:04;12.20;99.90
843;DHT22;407;48.884;9.126;2023-03-31T03:13:13;12.00;99.90
843;DHT22;407;48.884;9.126;2023-03-31T03:15:53;12.00;99.90
843;DHT22;407;48.884;9.126;2023-03-31T03:18:20;11.90;1.00
843;DHT22;407;48.884;9.126;2023-03-31T03:20:46;11.90;1.00
843;DHT22;407;48.884;9.126;2023-03-31T03:23:14;11.90;1.00
843;DHT22;407;48.884;9.126;2023-03-31T03:25:41;11.70;1.00
843;DHT22;407;48.884;9.126;2023-03-31T03:28:06;11.70;1.00
843;DHT22;407;48.884;9.126;2023-03-31T03:30:32;11.70;1.00
843;DHT22;407;48.884;9.126;2023-03-31T03:32:58;11.70;1.00
843;DHT22;407;48.884;9.126;2023-03-31T03:35:23;11.60;1.00
843;DHT22;407;48.884;9.126;2023-03-31T03:37:49;11.50;1.00
843;DHT22;407;48.884;9.126;2023-03-31T03:40:15;11.60;1.00
843;DHT22;407;48.884;9.126;2023-03-31T03:42:41;11.60;1.00
843;DHT22;407;48.884;9.126;2023-03-31T03:45:07;11.60;1.00
843;DHT22;407;48.884;9.126;2023-03-31T03:47:33;11.60;1.00
843;DHT22;407;48.884;9.126;2023-03-31T03:49:59;11.50;1.00
843;DHT22;407;48.884;9.126;2023-03-31T03:52:24;11.60;1.00
843;DHT22;407;48.884;9.126;2023-03-31T03:54:50;11.70;1.00
843;DHT22;407;48.884;9.126;2023-03-31T03:57:16;11.60;1.00
843;DHT22;407;48.884;9.126;2023-03-31T03:59:41;11.50;1.00
843;DHT22;407;48.884;9.126;2023-03-31T04:02:07;12.00;99.90
843;DHT22;407;48.884;9.126;2023-03-31T04:04:32;11.40;99.90
843;DHT22;407;48.884;9.126;2023-03-31T04:06:58;11.40;1.00
843;DHT22;407;48.884;9.126;2023-03-31T04:09:23;11.30;1.00
843;DHT22;407;48.884;9.126;2023-03-31T04:11:49;11.30;99.90
843;DHT22;407;48.884;9.126;2023-03-31T04:14:15;11.20;99.90
843;DHT22;407;48.884;9.126;2023-03-31T04:16:40;11.10;99.90
843;DHT22;407;48.884;9.126;2023-03-31T04:19:06;11.00;1.00
843;DHT22;407;48.884;9.126;2023-03-31T04:21:33;10.90;1.00
843;DHT22;407;48.884;9.126;2023-03-31T04:24:01;10.90;1.00
843;DHT22;407;48.884;9.126;2023-03-31T04:26:30;10.90;77.80
843;DHT22;407;48.884;9.126;2023-03-31T04:29:04;10.90;99.90
843;DHT22;407;48.884;9.126;2023-03-31T04:31:30;11.00;99.90
843;DHT22;407;48.884;9.126;2023-03-31T04:33:55;11.00;43.90
843;DHT22;407;48.884;9.126;2023-03-31T04:36:27;11.10;1.00
843;DHT22;407;48.884;9.126;2023-03-31T04:38:53;11.10;99.90
843;DHT22;407;48.884;9.126;2023-03-31T04:41:22;11.20;1.00
843;DHT22;407;48.884;9.126;2023-03-31T04:43:48;11.10;1.00
843;DHT22;407;48.884;9.126;2023-03-31T04:46:14;11.20;1.00
843;DHT22;407;48.884;9.126;2023-03-31T04:48:40;11.20;1.00
843;DHT22;407;48.884;9.126;2023-03-31T04:51:05;11.30;99.90
843;DHT22;407;48.884;9.126;2023-03-31T04:53:32;11.40;99.90
843;DHT22;407;48.884;9.126;2023-03-31T04:55:57;11.40;1.00
843;DHT22;407;48.884;9.126;2023-03-31T04:58:23;11.40;1.00
843;DHT22;407;48.884;9.126;2023-03-31T05:00:49;11.50;1.00
843;DHT22;407;48.884;9.126;2023-03-31T05:03:14;11.50;1.00
843;DHT22;407;48.884;9.126;2023-03-31T05:05:40;11.70;1.00
843;DHT22;407;48.884;9.126;2023-03-31T05:08:05;11.60;1.00
843;DHT22;407;48.884;9.126;2023-03-31T05:10:31;11.50;99.90
843;DHT22;407;48.884;9.126;2023-03-31T05:12:57;11.40;1.00
843;DHT22;407;48.884;9.126;2023-03-31T05:15:23;11.40;86.30
843;DHT22;407;48.884;9.126;2023-03-31T05:17:51;11.40;99.90
843;DHT22;407;48.884;9.126;2023-03-31T05:20:18;11.40;1.00
843;DHT22;407;48.884;9.126;2023-03-31T05:22:45;11.60;99.90
843;DHT22;407;48.884;9.126;2023-03-31T05:25:12;11.50;99.90
843;DHT22;407;48.884;9.126;2023-03-31T05:27:45;11.50;1.00
843;DHT22;407;48.884;9.126;2023-03-31T05:30:15;11.40;99.90
843;DHT22;407;48.884;9.126;2023-03-31T05:32:41;11.20;99.90
843;DHT22;407;48.884;9.126;2023-03-31T05:35:07;11.30;1.00
843;DHT22;407;48.884;9.126;2023-03-31T05:37:33;11.30;1.00
843;DHT22;407;48.884;9.126;2023-03-31T05:39:58;11.30;1.00
843;DHT22;407;48.884;9.126;2023-03-31T05:42:24;11.20;1.00
843;DHT22;407;48.884;9.126;2023-03-31T05:44:50;11.30;1.00
843;DHT22;407;48.884;9.126;2023-03-31T05:47:16;11.40;1.00
843;DHT22;407;48.884;9.126;2023-03-31T05:49:42;11.30;1.00
843;DHT22;407;48.884;9.126;2023-03-31T05:52:08;11.20;1.00
843;DHT22;407;48.884;9.126;2023-03-31T05:54:34;11.10;97.80
843;DHT22;407;48.884;9.126;2023-03-31T05:57:00;11.10;99.90
843;DHT22;407;48.884;9.126;2023-03-31T05:59:26;11.10;99.90
843;DHT22;407;48.884;9.126;2023-03-31T06:01:51;11.10;99.90
843;DHT22;407;48.884;9.126;2023-03-31T06:04:17;11.00;99.90
843;DHT22;407;48.884;9.126;2023-03-31T06:06:42;11.00;99.90
843;DHT22;407;48.884;9.126;2023-03-31T06:09:09;11.00;99.90
843;DHT22;407;48.884;9.126;2023-03-31T06:11:36;11.10;99.90
843;DHT22;407;48.884;9.126;2023-03-31T06:14:02;11.10;99.90
843;DHT22;407;48.884;9.126;2023-03-31T06:16:28;11.10;99.90
843;DHT22;407;48.884;9.126;2023-03-31T06:18:54;11.60;99.90
843;DHT22;407;48.884;9.126;2023-03-31T06:21:20;11.10;99.90
843;DHT22;407;48.884;9.126;2023-03-31T06:23:47;11.10;1.00
843;DHT22;407;48.884;9.126;2023-03-31T06:26:17;11.10;1.00
843;DHT22;407;48.884;9.126;2023-03-31T06:28:43;11.10;1.00
843;DHT22;407;48.884;9.126;2023-03-31T06:31:12;11.00;1.00
843;DHT22;407;48.884;9.126;2023-03-31T06:33:39;10.90;1.00
843;DHT22;407;48.884;9.126;2023-03-31T06:36:06;10.90;1.00
843;DHT22;407;48.884;9.126;2023-03-31T06:38:33;10.90;1.00
843;DHT22;407;48.884;9.126;2023-03-31T06:40:58;10.90;1.00
843;DHT22;407;48.884;9.126;2023-03-31T06:43:24;10.90;1.00
843;DHT22;407;48.884;9.126;2023-03-31T06:45:52;10.90;1.00
843;DHT22;407;48.884;9.126;2023-03-31T06:48:18;10.80;1.00
843;DHT22;407;48.884;9.126;2023-03-31T06:50:43;10.90;1.00
843;DHT22;407;48.884;9.126;2023-03-31T06:53:09;10.80;1.00
843;DHT22;407;48.884;9.126;2023-03-31T06:55:36;10.80;1.00
843;DHT22;407;48.884;9.126;2023-03-31T06:58:02;10.90;1.00
843;DHT22;407;48.884;9.126;2023-03-31T07:00:28;10.80;1.00
843;DHT22;407;48.884;9.126;2023-03-31T07:02:54;10.80;1.00
843;DHT22;407;48.884;9.126;2023-03-31T07:05:20;10.80;1.00
843;DHT22;407;48.884;9.126;2023-03-31T07:07:52;10.80;1.00
843;DHT22;407;48.884;9.126;2023-03-31T07:10:19;10.90;1.00
843;DHT22;407;48.884;9.126;2023-03-31T07:12:45;10.90;1.00
843;DHT22;407;48.884;9.126;2023-03-31T07:15:11;10.90;1.00
843;DHT22;407;48.884;9.126;2023-03-31T07:17:37;11.10;1.00
843;DHT22;407;48.884;9.126;2023-03-31T07:20:07;10.90;1.00
843;DHT22;407;48.884;9.126;2023-03-31T07:22:40;11.00;1.00
843;DHT22;407;48.884;9.126;2023-03-31T07:25:07;11.00;1.00
843;DHT22;407;48.884;9.126;2023-03-31T07:27:34;11.20;1.00
843;DHT22;407;48.884;9.126;2023-03-31T07:30:00;11.00;1.00
843;DHT22;407;48.884;9.126;2023-03-31T07:32:25;11.00;1.00
843;DHT22;407;48.884;9.126;2023-03-31T07:34:51;11.00;1.00
843;DHT22;407;48.884;9.126;2023-03-31T07:37:17;11.00;1.00
843;DHT22;407;48.884;9.126;2023-03-31T07:39:42;11.10;1.00
843;DHT22;407;48.884;9.126;2023-03-31T07:42:08;11.30;99.90
843;DHT22;407;48.884;9.126;2023-03-31T07:44:34;11.50;99.90
843;DHT22;407;48.884;9.126;2023-03-31T07:47:00;11.60;99.90
843;DHT22;407;48.884;9.126;2023-03-31T07:49:31;14.50;99.90
843;DHT22;407;48.884;9.126;2023-03-31T07:51:57;14.90;1.00
843;DHT22;407;48.884;9.126;2023-03-31T07:54:22;16.10;99.90
843;DHT22;407;48.884;9.126;2023-03-31T07:56:48;16.80;26.50
843;DHT22;407;48.884;9.126;2023-03-31T07:59:13;16.50;1.00
843;DHT22;407;48.884;9.126;2023-03-31T08:01:39;16.70;1.00
843;DHT22;407;48.884;9.126;2023-03-31T08:04:05;17.30;1.00
843;DHT22;407;48.884;9.126;2023-03-31T08:06:31;16.70;1.00
843;DHT22;407;48.884;9.126;2023-03-31T08:08:57;17.20;1.00
843;DHT22;407;48.884;9.126;2023-03-31T08:11:24;16.90;1.00
843;DHT22;407;48.884;9.126;2023-03-31T08:13:50;17.60;1.00
843;DHT22;407;48.884;9.126;2023-03-31T08:16:16;17.50;1.00
843;DHT22;407;48.884;9.126;2023-03-31T08:18:41;17.00;1.00
843;DHT22;407;48.884;9.126;2023-03-31T08:21:07;16.70;1.00
843;DHT22;407;48.884;9.126;2023-03-31T08:23:34;16.90;1.00
843;DHT22;407;48.884;9.126;2023-03-31T08:28:32;18.10;1.00
843;DHT22;407;48.884;9.126;2023-03-31T08:31:05;18.10;1.00
843;DHT22;407;48.884;9.126;2023-03-31T08:33:32;17.90;1.00
843;DHT22;407;48.884;9.126;2023-03-31T08:36:03;18.20;1.00
843;DHT22;407;48.884;9.126;2023-03-31T08:38:32;18.40;1.00
843;DHT22;407;48.884;9.126;2023-03-31T08:41:01;18.10;1.00
843;DHT22;407;48.884;9.126;2023-03-31T08:43:31;17.90;1.00
843;DHT22;407;48.884;9.126;2023-03-31T08:45:58;18.20;1.00
843;DHT22;407;48.884;9.126;2023-03-31T08:48:37;17.90;1.00
843;DHT22;407;48.884;9.126;2023-03-31T08:51:18;17.90;1.00
843;DHT22;407;48.884;9.126;2023-03-31T08:54:04;17.80;1.00
843;DHT22;407;48.884;9.126;2023-03-31T08:56:34;19.20;1.00
843;DHT22;407;48.884;9.126;2023-03-31T08:59:03;19.40;1.00
843;DHT22;407;48.884;9.126;2023-03-31T09:01:41;19.70;1.00
843;DHT22;407;48.884;9.126;2023-03-31T09:07:14;17.20;99.90
843;DHT22;407;48.884;9.126;2023-03-31T09:12:20;18.50;99.90
843;DHT22;407;48.884;9.126;2023-03-31T09:14:53;18.60;99.90
843;DHT22;407;48.884;9.126;2023-03-31T09:17:29;18.60;99.90
843;DHT22;407;48.884;9.126;2023-03-31T09:20:12;19.30;99.90
843;DHT22;407;48.884;9.126;2023-03-31T09:22:48;18.90;99.90
843;DHT22;407;48.884;9.126;2023-03-31T09:25:20;18.20;99.90
843;DHT22;407;48.884;9.126;2023-03-31T09:27:49;18.20;99.90
843;DHT22;407;48.884;9.126;2023-03-31T09:30:21;18.20;99.90
843;DHT22;407;48.884;9.126;2023-03-31T09:32:52;17.70;99.90
843;DHT22;407;48.884;9.126;2023-03-31T09:35:23;17.10;99.90
843;DHT22;407;48.884;9.126;2023-03-31T09:37:52;15.90;99.90
843;DHT22;407;48.884;9.126;2023-03-31T09:40:23;16.50;99.90
843;DHT22;407;48.884;9.126;2023-03-31T09:43:05;16.40;99.90
843;DHT22;407;48.884;9.126;2023-03-31T09:45:31;17.50;99.90
843;DHT22;407;48.884;9.126;2023-03-31T09:48:04;17.00;99.90
843;DHT22;407;48.884;9.126;2023-03-31T09:50:37;16.20;99.90
843;DHT22;407;48.884;9.126;2023-03-31T09:53:06;16.30;99.90
843;DHT22;407;48.884;9.126;2023-03-31T09:55:55;15.70;99.90
843;DHT22;407;48.884;9.126;2023-03-31T09:58:25;15.90;99.90
843;DHT22;407;48.884;9.126;2023-03-31T10:01:03;16.80;99.90
843;DHT22;407;48.884;9.126;2023-03-31T10:03:31;16.60;99.90
843;DHT22;407;48.884;9.126;2023-03-31T10:06:07;16.60;99.90
843;DHT22;407;48.884;9.126;2023-03-31T10:08:39;16.90;99.90
843;DHT22;407;48.884;9.126;2023-03-31T10:11:11;17.10;99.90
843;DHT22;407;48.884;9.126;2023-03-31T10:13:45;16.10;99.90
843;DHT22;407;48.884;9.126;2023-03-31T10:16:21;15.80;99.90
843;DHT22;407;48.884;9.126;2023-03-31T10:18:47;15.90;99.90
843;DHT22;407;48.884;9.126;2023-03-31T10:21:25;15.90;99.90
843;DHT22;407;48.884;9.126;2023-03-31T10:23:53;16.10;99.90
843;DHT22;407;48.884;9.126;2023-03-31T10:26:22;15.50;99.90
843;DHT22;407;48.884;9.126;2023-03-31T10:28:50;15.40;99.90
843;DHT22;407;48.884;9.126;2023-03-31T10:31:18;15.50;99.90
843;DHT22;407;48.884;9.126;2023-03-31T10:33:46;15.70;99.90
843;DHT22;407;48.884;9.126;2023-03-31T10:36:24;15.50;99.90
843;DHT22;407;48.884;9.126;2023-03-31T10:38:51;15.30;99.90
843;DHT22;407;48.884;9.126;2023-03-31T10:41:20;15.30;99.90
843;DHT22;407;48.884;9.126;2023-03-31T10:43:51;15.20;99.90
843;DHT22;407;48.884;9.126;2023-03-31T10:46:18;15.40;99.90
843;DHT22;407;48.884;9.126;2023-03-31T10:48:44;16.20;99.90
843;DHT22;407;48.884;9.126;2023-03-31T10:51:25;16.50;99.90
843;DHT22;407;48.884;9.126;2023-03-31T10:53:56;16.20;99.90
843;DHT22;407;48.884;9.126;2023-03-31T10:56:41;15.90;99.90
843;DHT22;407;48.884;9.126;2023-03-31T11:05:26;15.60;99.90
843;DHT22;407;48.884;9.126;2023-03-31T11:13:34;14.40;99.90
843;DHT22;407;48.884;9.126;2023-03-31T11:27:51;11.00;1.00
843;DHT22;407;48.884;9.126;2023-03-31T11:41:43;9.90;1.00
843;DHT22;407;48.884;9.126;2023-03-31T11:44:14;10.00;99.90
843;DHT22;407;48.884;9.126;2023-03-31T11:49:27;10.20;99.90
843;DHT22;407;48.884;9.126;2023-03-31T11:52:01;10.40;1.00
843;DHT22;407;48.884;9.126;2023-03-31T11:55:01;10.50;99.90
843;DHT22;407;48.884;9.126;2023-03-31T11:58:00;10.70;99.90
843;DHT22;407;48.884;9.126;2023-03-31T12:00:37;10.80;1.00
843;DHT22;407;48.884;9.126;2023-03-31T12:05:43;11.10;1.00
843;DHT22;407;48.884;9.126;2023-03-31T12:08:25;11.20;99.90
843;DHT22;407;48.884;9.126;2023-03-31T12:11:01;11.50;1.00
843;DHT22;407;48.884;9.126;2023-03-31T12:16:13;12.60;1.00
843;DHT22;407;48.884;9.126;2023-03-31T12:18:46;12.80;99.90
843;DHT22;407;48.884;9.126;2023-03-31T12:21:14;13.20;99.90
843;DHT22;407;48.884;9.126;2023-03-31T12:23:44;13.20;99.90
843;DHT22;407;48.884;9.126;2023-03-31T12:31:47;13.40;41.30
843;DHT22;407;48.884;9.126;2023-03-31T12:34:16;13.30;1.00
843;DHT22;407;48.884;9.126;2023-03-31T12:37:06;13.50;19.30
843;DHT22;407;48.884;9.126;2023-03-31T12:55:57;14.80;1.00
843;DHT22;407;48.884;9.126;2023-03-31T13:01:19;14.80;1.00
843;DHT22;407;48.884;9.126;2023-03-31T13:06:47;15.30;1.00
843;DHT22;407;48.884;9.126;2023-03-31T13:11:41;15.00;1.00
843;DHT22;407;48.884;9.126;2023-03-31T13:14:36;13.90;1.00
843;DHT22;407;48.884;9.126;2023-03-31T13:19:54;13.30;1.00
843;DHT22;407;48.884;9.126;2023-03-31T13:22:29;12.90;1.00
843;DHT22;407;48.884;9.126;2023-03-31T13:35:36;12.30;1.00
843;DHT22;407;48.884;9.126;2023-03-31T13:40:59;12.80;1.00
843;DHT22;407;48.884;9.126;2023-03-31T13:46:48;12.80;1.00
843;DHT22;407;48.884;9.126;2023-03-31T13:49:43;12.90;1.00
843;DHT22;407;48.884;9.126;2023-03-31T13:52:12;13.10;1.00
843;DHT22;407;48.884;9.126;2023-03-31T13:57:37;12.40;1.00
843;DHT22;407;48.884;9.126;2023-03-31T14:05:30;11.90;1.00
843;DHT22;407;48.884;9.126;2023-03-31T14:08:01;11.90;1.00
843;DHT22;407;48.884;9.126;2023-03-31T14:10:33;12.00;1.00
843;DHT22;407;48.884;9.126;2023-03-31T14:13:17;12.20;1.00
843;DHT22;407;48.884;9.126;2023-03-31T14:15:55;12.50;1.00
843;DHT22;407;48.884;9.126;2023-03-31T14:18:33;12.60;1.00
843;DHT22;407;48.884;9.126;2023-03-31T14:21:26;12.80;1.00
843;DHT22;407;48.884;9.126;2023-03-31T14:24:23;13.00;1.00
843;DHT22;407;48.884;9.126;2023-03-31T14:35:39;13.50;1.00
843;DHT22;407;48.884;9.126;2023-03-31T14:38:17;13.70;1.00
843;DHT22;407;48.884;9.126;2023-03-31T14:40:50;13.60;1.00
843;DHT22;407;48.884;9.126;2023-03-31T14:43:29;13.60;1.00
843;DHT22;407;48.884;9.126;2023-03-31T14:46:08;13.70;1.00
843;DHT22;407;48.884;9.126;2023-03-31T14:48:40;13.80;1.00
843;DHT22;407;48.884;9.126;2023-03-31T14:51:12;13.70;1.00
843;DHT22;407;48.884;9.126;2023-03-31T14:53:38;13.90;1.00
843;DHT22;407;48.884;9.126;2023-03-31T14:56:12;13.80;1.00
843;DHT22;407;48.884;9.126;2023-03-31T14:58:42;13.70;1.00
843;DHT22;407;48.884;9.126;2023-03-31T15:01:11;13.70;1.00
843;DHT22;407;48.884;9.126;2023-03-31T15:03:40;13.60;1.00
843;DHT22;407;48.884;9.126;2023-03-31T15:06:06;13.60;1.00
843;DHT22;407;48.884;9.126;2023-03-31T15:08:33;13.50;1.00
843;DHT22;407;48.884;9.126;2023-03-31T15:11:03;13.60;1.00
843;DHT22;407;48.884;9.126;2023-03-31T15:13:56;13.60;1.00
843;DHT22;407;48.884;9.126;2023-03-31T15:19:18;13.40;1.00
843;DHT22;407;48.884;9.126;2023-03-31T15:21:44;13.30;1.00
843;DHT22;407;48.884;9.126;2023-03-31T15:24:13;13.30;1.00
843;DHT22;407;48.884;9.126;2023-03-31T15:26:53;13.40;1.00
843;DHT22;407;48.884;9.126;2023-03-31T15:29:35;13.30;1.00
843;DHT22;407;48.884;9.126;2023-03-31T15:32:02;13.20;1.00
843;DHT22;407;48.884;9.126;2023-03-31T15:34:31;13.00;1.00
843;DHT22;407;48.884;9.126;2023-03-31T15:36:58;13.00;1.00
843;DHT22;407;48.884;9.126;2023-03-31T15:39:27;13.00;1.00
843;DHT22;407;48.884;9.126;2023-03-31T15:41:54;13.10;1.00
843;DHT22;407;48.884;9.126;2023-03-31T15:44:44;13.30;1.00
843;DHT22;407;48.884;9.126;2023-03-31T15:47:26;13.10;1.00
843;DHT22;407;48.884;9.126;2023-03-31T15:52:35;13.20;1.00
843;DHT22;407;48.884;9.126;2023-03-31T15:57:48;13.40;1.00
843;DHT22;407;48.884;9.126;2023-03-31T16:00:43;13.30;1.00
843;DHT22;407;48.884;9.126;2023-03-31T16:05:52;13.10;1.00
843;DHT22;407;48.884;9.126;2023-03-31T16:08:26;13.00;1.00
843;DHT22;407;48.884;9.126;2023-03-31T16:11:00;13.00;1.00
843;DHT22;407;48.884;9.126;2023-03-31T16:13:28;13.00;1.00
843;DHT22;407;48.884;9.126;2023-03-31T16:15:55;12.90;1.00
843;DHT22;407;48.884;9.126;2023-03-31T16:18:32;12.90;1.00
843;DHT22;407;48.884;9.126;2023-03-31T16:21:00;12.90;1.00
843;DHT22;407;48.884;9.126;2023-03-31T16:23:30;12.90;1.00
843;DHT22;407;48.884;9.126;2023-03-31T16:25:57;12.70;1.00
843;DHT22;407;48.884;9.126;2023-03-31T16:28:32;12.50;1.00
843;DHT22;407;48.884;9.126;2023-03-31T16:30:59;12.50;1.00
843;DHT22;407;48.884;9.126;2023-03-31T16:33:27;12.60;1.00
843;DHT22;407;48.884;9.126;2023-03-31T16:35:54;12.50;1.00
843;DHT22;407;48.884;9.126;2023-03-31T16:38:25;12.30;1.00
843;DHT22;407;48.884;9.126;2023-03-31T16:40:53;12.40;1.00
843;DHT22;407;48.884;9.126;2023-03-31T16:43:21;12.00;1.00
843;DHT22;407;48.884;9.126;2023-03-31T16:45:55;11.80;1.00
843;DHT22;407;48.884;9.126;2023-03-31T16:48:23;11.70;1.00
843;DHT22;407;48.884;9.126;2023-03-31T16:50:51;11.80;1.00
843;DHT22;407;48.884;9.126;2023-03-31T16:53:22;11.80;1.00
843;DHT22;407;48.884;9.126;2023-03-31T16:55:48;11.70;1.00
843;DHT22;407;48.884;9.126;2023-03-31T16:58:15;11.80;1.00
843;DHT22;407;48.884;9.126;2023-03-31T17:00:42;11.70;1.00
843;DHT22;407;48.884;9.126;2023-03-31T17:03:09;11.70;1.00
843;DHT22;407;48.884;9.126;2023-03-31T17:05:39;11.60;1.00
843;DHT22;407;48.884;9.126;2023-03-31T17:08:05;11.60;1.00
843;DHT22;407;48.884;9.126;2023-03-31T17:10:33;11.60;1.00
843;DHT22;407;48.884;9.126;2023-03-31T17:12:59;11.50;1.00
843;DHT22;407;48.884;9.126;2023-03-31T17:15:25;11.60;1.00
843;DHT22;407;48.884;9.126;2023-03-31T17:17:51;11.60;76.00
843;DHT22;407;48.884;9.126;2023-03-31T17:20:18;11.50;99.90
843;DHT22;407;48.884;9.126;2023-03-31T17:22:43;11.60;1.00
843;DHT22;407;48.884;9.126;2023-03-31T17:25:09;11.20;1.00
843;DHT22;407;48.884;9.126;2023-03-31T17:27:35;11.20;99.90
843;DHT22;407;48.884;9.126;2023-03-31T17:30:02;11.10;99.90
843;DHT22;407;48.884;9.126;2023-03-31T17:32:28;11.00;99.90
843;DHT22;407;48.884;9.126;2023-03-31T17:34:54;10.90;1.00
843;DHT22;407;48.884;9.126;2023-03-31T17:37:19;10.80;1.00
843;DHT22;407;48.884;9.126;2023-03-31T17:39:45;10.80;44.10
843;DHT22;407;48.884;9.126;2023-03-31T17:42:12;10.70;1.00
843;DHT22;407;48.884;9.126;2023-03-31T17:44:39;10.70;34.80
843;DHT22;407;48.884;9.126;2023-03-31T17:47:06;10.80;87.40
843;DHT22;407;48.884;9.126;2023-03-31T17:49:32;10.70;99.90
843;DHT22;407;48.884;9.126;2023-03-31T17:51:59;10.90;1.00
843;DHT22;407;48.884;9.126;2023-03-31T17:54:24;10.50;99.90
843;DHT22;407;48.884;9.126;2023-03-31T17:56:50;10.40;1.00
843;DHT22;407;48.884;9.126;2023-03-31T17:59:17;10.10;99.90
843;DHT22;407;48.884;9.126;2023-03-31T18:01:43;9.90;1.00
843;DHT22;407;48.884;9.126;2023-03-31T18:04:11;10.00;39.10
843;DHT22;407;48.884;9.126;2023-03-31T18:06:38;9.80;99.90
843;DHT22;407;48.884;9.126;2023-03-31T18:09:04;9.80;99.90
843;DHT22;407;48.884;9.126;2023-03-31T18:11:30;9.90;1.00
843;DHT22;407;48.884;9.126;2023-03-31T18:13:57;9.90;1.00
843;DHT22;407;48.884;9.126;2023-03-31T18:16:26;9.50;1.00
843;DHT22;407;48.884;9.126;2023-03-31T18:18:52;9.40;99.90
843;DHT22;407;48.884;9.126;2023-03-31T18:21:18;9.40;99.90
843;DHT22;407;48.884;9.126;2023-03-31T18:23:43;9.30;99.90
843;DHT22;407;48.884;9.126;2023-03-31T18:26:11;9.50;99.20
843;DHT22;407;48.884;9.126;2023-03-31T18:28:37;9.60;1.00
843;DHT22;407;48.884;9.126;2023-03-31T18:31:06;9.70;1.00
843;DHT22;407;48.884;9.126;2023-03-31T18:33:33;9.70;1.00
843;DHT22;407;48.884;9.126;2023-03-31T18:35:59;9.70;19.30
843;DHT22;407;48.884;9.126;2023-03-31T18:38:25;9.70;7.30
843;DHT22;407;48.884;9.126;2023-03-31T18:40:53;9.70;1.00
843;DHT22;407;48.884;9.126;2023-03-31T18:43:21;9.60;1.00
843;DHT22;407;48.884;9.126;2023-03-31T18:45:48;9.70;3.30
843;DHT22;407;48.884;9.126;2023-03-31T18:48:14;9.70;1.00
843;DHT22;407;48.884;9.126;2023-03-31T18:50:43;10.90;1.00
843;DHT22;407;48.884;9.126;2023-03-31T18:53:09;9.80;1.00
843;DHT22;407;48.884;9.126;2023-03-31T18:55:34;9.60;1.00
843;DHT22;407;48.884;9.126;2023-03-31T18:58:00;9.50;96.30
843;DHT22;407;48.884;9.126;2023-03-31T19:00:26;9.60;1.00
843;DHT22;407;48.884;9.126;2023-03-31T19:02:51;9.60;1.00
843;DHT22;407;48.884;9.126;2023-03-31T19:05:18;9.60;2.80
843;DHT22;407;48.884;9.126;2023-03-31T19:07:43;9.50;1.00
843;DHT22;407;48.884;9.126;2023-03-31T19:10:09;9.60;90.60
843;DHT22;407;48.884;9.126;2023-03-31T19:12:35;9.60;76.80
843;DHT22;407;48.884;9.126;2023-03-31T19:15:00;9.70;7.70
843;DHT22;407;48.884;9.126;2023-03-31T19:17:26;9.70;1.00
843;DHT22;407;48.884;9.126;2023-03-31T19:19:52;9.70;1.00
843;DHT22;407;48.884;9.126;2023-03-31T19:22:18;9.80;1.00
843;DHT22;407;48.884;9.126;2023-03-31T19:24:44;9.80;1.00
843;DHT22;407;48.884;9.126;2023-03-31T19:27:10;9.90;1.00
843;DHT22;407;48.884;9.126;2023-03-31T19:29:36;9.90;99.90
843;DHT22;407;48.884;9.126;2023-03-31T19:32:02;9.80;99.90
843;DHT22;407;48.884;9.126;2023-03-31T19:34:28;9.80;99.90
843;DHT22;407;48.884;9.126;2023-03-31T19:36:54;9.90;99.90
843;DHT22;407;48.884;9.126;2023-03-31T19:39:20;9.80;99.90
843;DHT22;407;48.884;9.126;2023-03-31T19:41:46;9.80;99.90
843;DHT22;407;48.884;9.126;2023-03-31T19:44:11;9.80;43.10
843;DHT22;407;48.884;9.126;2023-03-31T19:46:37;9.80;67.80
843;DHT22;407;48.884;9.126;2023-03-31T19:49:03;9.80;27.00
843;DHT22;407;48.884;9.126;2023-03-31T19:51:29;9.80;99.90